Time;durP1;ratioP1;P1;durP2;ratioP2;P2;SDS_P1;SDS_P2;PMS_P1;PMS_P2;Temp;Humidity;BMP_temperature;BMP_pressure;BME280_temperature;BME280_humidity;BME280_pressure;Samples;Min_cycle;Max_cycle;Signal;HPM_P1;HPM_P2
2022/12/15 00:41:04;;;;;;;37.80;16.17;;;-6.40;99.90;;;;;;5032317;28;20493;-54
2022/12/15 00:43:31;;;;;;;36.07;15.20;;;-6.50;99.90;;;;;;5032253;28;20432;-55
2022/12/15 00:48:42;;;;;;;35.93;15.43;;;-6.70;99.90;;;;;;5031839;28;20447;-55
2022/12/15 00:51:09;;;;;;;40.50;16.70;;;-6.80;99.90;;;;;;5031904;28;20456;-56
2022/12/15 01:21:07;;;;;;;45.97;17.67;;;-6.40;99.90;;;;;;5031094;28;20475;-55
2022/12/15 01:23:33;;;;;;;38.17;16.40;;;-6.30;99.90;;;;;;5031457;28;20508;-53
2022/12/15 01:25:59;;;;;;;40.93;18.13;;;-6.30;99.90;;;;;;5031379;28;20773;-54
2022/12/15 01:28:26;;;;;;;42.60;17.83;;;-6.20;99.90;;;;;;5029834;28;20510;-52
2022/12/15 01:30:51;;;;;;;44.87;18.20;;;-6.20;99.90;;;;;;5031146;28;20494;-53
2022/12/15 01:33:18;;;;;;;40.30;18.60;;;-6.20;99.90;;;;;;5031279;28;20436;-55
2022/12/15 01:35:44;;;;;;;42.47;17.80;;;-6.20;99.90;;;;;;5031260;28;20029;-53
2022/12/15 01:38:10;;;;;;;38.90;16.50;;;-6.20;99.90;;;;;;5030957;28;20460;-55
2022/12/15 01:40:45;;;;;;;37.00;16.60;;;-6.10;99.90;;;;;;5030906;28;20498;-52
2022/12/15 01:43:17;;;;;;;37.83;16.73;;;-6.00;99.90;;;;;;5031258;28;20025;-53
2022/12/15 01:46:01;;;;;;;33.47;17.30;;;-6.00;99.90;;;;;;5031179;28;20428;-53
2022/12/15 01:48:39;;;;;;;48.30;19.00;;;-6.00;99.90;;;;;;5030849;28;20520;-55
2022/12/15 01:51:12;;;;;;;46.47;18.93;;;-6.00;99.90;;;;;;5030948;28;20464;-55
2022/12/15 01:53:46;;;;;;;50.10;22.37;;;-6.00;99.90;;;;;;5031131;28;20428;-55
2022/12/15 01:56:13;;;;;;;44.90;20.83;;;-6.00;99.90;;;;;;5031047;28;20524;-55
2022/12/15 01:58:42;;;;;;;41.23;17.97;;;-6.10;99.90;;;;;;5030573;28;20833;-56
2022/12/15 02:01:08;;;;;;;45.85;19.85;;;-6.20;99.90;;;;;;5030822;28;20448;-52
2022/12/15 02:03:35;;;;;;;44.40;19.23;;;-6.20;99.90;;;;;;5030837;28;20045;-56
2022/12/15 02:06:01;;;;;;;42.80;18.93;;;-6.20;99.90;;;;;;5030919;28;20436;-55
2022/12/15 02:08:29;;;;;;;39.93;18.33;;;-6.20;99.90;;;;;;5030612;28;20504;-56
2022/12/15 02:11:00;;;;;;;41.10;17.73;;;-6.10;99.90;;;;;;5030586;28;20443;-55
2022/12/15 02:13:38;;;;;;;37.77;17.60;;;-6.10;99.90;;;;;;5030850;28;20436;-55
2022/12/15 02:16:27;;;;;;;43.27;18.17;;;-6.10;99.90;;;;;;5030885;28;20424;-55
2022/12/15 02:19:17;;;;;;;37.92;17.08;;;-6.10;99.90;;;;;;5030561;28;20440;-53
2022/12/15 02:22:03;;;;;;;39.13;16.77;;;-6.10;99.90;;;;;;5030804;28;20441;-55
2022/12/15 02:24:45;;;;;;;37.97;16.53;;;-6.10;99.90;;;;;;5026719;28;20972;-52
2022/12/15 02:27:29;;;;;;;33.73;14.03;;;-6.10;99.90;;;;;;5030448;28;20482;-53
2022/12/15 02:30:39;;;;;;;35.30;15.23;;;-6.10;99.90;;;;;;5044345;22;20591;-47
2022/12/15 02:33:15;;;;;;;43.23;16.80;;;-6.00;99.90;;;;;;5021076;28;20567;-50
2022/12/15 02:36:00;;;;;;;39.70;17.00;;;-6.10;99.90;;;;;;5034706;28;20804;-49
2022/12/15 02:38:37;;;;;;;36.67;16.07;;;-6.20;99.90;;;;;;5034385;28;20432;-52
2022/12/15 02:41:05;;;;;;;41.23;17.63;;;-6.20;99.90;;;;;;5034593;28;20442;-50
2022/12/15 02:43:35;;;;;;;41.37;17.90;;;-6.20;99.90;;;;;;5034561;28;20891;-49
2022/12/15 02:46:27;;;;;;;41.77;17.13;;;-6.20;99.90;;;;;;5034395;28;20489;-50
2022/12/15 02:49:16;;;;;;;40.57;16.17;;;-6.20;99.90;;;;;;5032822;28;20463;-49
2022/12/15 02:51:51;;;;;;;41.67;17.65;;;-6.20;99.90;;;;;;5034249;28;20478;-49
2022/12/15 02:54:42;;;;;;;41.97;18.47;;;-6.20;99.90;;;;;;5034353;28;20029;-50
2022/12/15 02:57:23;;;;;;;47.90;18.23;;;-6.20;99.90;;;;;;5034154;28;20452;-49
2022/12/15 03:00:05;;;;;;;52.17;19.37;;;-6.20;99.90;;;;;;5033788;28;20487;-51
2022/12/15 03:02:33;;;;;;;53.40;19.77;;;-6.20;99.90;;;;;;5034148;28;20427;-50
2022/12/15 03:05:00;;;;;;;51.73;20.50;;;-6.20;99.90;;;;;;5033952;28;20455;-50
2022/12/15 03:07:26;;;;;;;54.50;20.43;;;-6.20;99.90;;;;;;5033940;28;20523;-53
2022/12/15 03:09:58;;;;;;;61.30;20.63;;;-6.20;99.90;;;;;;5033612;28;20529;-51
2022/12/15 03:12:24;;;;;;;54.63;19.93;;;-6.20;99.90;;;;;;5033903;28;20456;-50
2022/12/15 03:14:50;;;;;;;56.70;21.10;;;-6.10;99.90;;;;;;5033895;28;20424;-48
2022/12/15 03:17:16;;;;;;;54.13;20.73;;;-6.10;99.90;;;;;;5033764;28;20017;-51
2022/12/15 03:19:42;;;;;;;51.10;19.50;;;-6.10;99.90;;;;;;5032836;28;20793;-52
2022/12/15 03:22:08;;;;;;;57.57;20.10;;;-6.00;99.90;;;;;;5033640;28;20397;-48
2022/12/15 03:24:33;;;;;;;50.50;20.07;;;-5.90;99.90;;;;;;5033658;28;20033;-50
2022/12/15 03:26:59;;;;;;;54.40;21.23;;;-6.00;99.90;;;;;;5033618;28;20034;-48
2022/12/15 03:29:25;;;;;;;52.83;19.50;;;-6.10;99.90;;;;;;5032295;28;20061;-47
2022/12/15 03:31:51;;;;;;;55.67;20.80;;;-6.10;99.90;;;;;;5032406;28;20072;-48
2022/12/15 03:34:17;;;;;;;50.27;19.43;;;-6.10;99.90;;;;;;5033304;28;20193;-50
2022/12/15 03:36:42;;;;;;;49.17;18.20;;;-6.10;99.90;;;;;;5033386;28;20725;-49
2022/12/15 03:39:08;;;;;;;54.50;19.80;;;-6.10;99.90;;;;;;5033168;28;20462;-49
2022/12/15 03:41:34;;;;;;;45.00;17.57;;;-6.00;99.90;;;;;;5033453;28;20091;-53
2022/12/15 03:43:59;;;;;;;45.50;18.13;;;-6.00;99.90;;;;;;5033411;28;20465;-53
2022/12/15 03:46:25;;;;;;;50.33;18.83;;;-6.00;99.90;;;;;;5033302;28;20041;-49
2022/12/15 03:48:52;;;;;;;47.43;18.33;;;-6.00;99.90;;;;;;5033022;28;20128;-53
2022/12/15 03:51:19;;;;;;;48.70;19.40;;;-6.00;99.90;;;;;;5033102;28;20030;-53
2022/12/15 03:53:46;;;;;;;50.27;17.97;;;-6.00;99.90;;;;;;5033148;28;20435;-51
2022/12/15 03:56:13;;;;;;;41.97;17.80;;;-6.00;99.90;;;;;;5033229;28;20424;-50
2022/12/15 03:58:39;;;;;;;44.30;18.60;;;-5.90;99.90;;;;;;5032657;28;21176;-48
2022/12/15 04:01:29;;;;;;;50.30;17.63;;;-6.00;99.90;;;;;;5033002;28;20439;-49
2022/12/15 04:03:56;;;;;;;47.67;18.23;;;-6.00;99.90;;;;;;5032943;28;20048;-53
2022/12/15 04:06:22;;;;;;;55.63;21.03;;;-6.00;99.90;;;;;;5032729;28;20424;-51
2022/12/15 04:08:48;;;;;;;46.53;19.37;;;-6.00;99.90;;;;;;5032510;28;20491;-51
2022/12/15 04:11:14;;;;;;;47.20;18.30;;;-6.00;99.90;;;;;;5032844;28;21049;-48
2022/12/15 04:13:40;;;;;;;55.27;19.47;;;-6.00;99.90;;;;;;5032903;28;20494;-50
2022/12/15 04:16:06;;;;;;;41.47;17.80;;;-6.00;99.90;;;;;;5032872;28;20424;-50
2022/12/15 04:18:32;;;;;;;51.33;18.47;;;-6.00;99.90;;;;;;5032071;28;20037;-48
2022/12/15 04:20:57;;;;;;;34.73;12.43;;;-6.00;99.90;;;;;;5032303;28;20108;-50
2022/12/15 04:23:23;;;;;;;46.93;18.83;;;-6.00;99.90;;;;;;5032444;28;20108;-51
2022/12/15 05:31:59;;;;;;;57.60;20.93;;;-5.90;99.90;;;;;;5028701;28;20486;-51
2022/12/15 05:34:27;;;;;;;56.50;20.50;;;-5.90;99.90;;;;;;5029692;28;20519;-51
2022/12/15 05:36:54;;;;;;;54.10;19.57;;;-5.90;99.90;;;;;;5028921;28;20021;-51
2022/12/15 05:39:20;;;;;;;51.73;20.63;;;-5.80;99.90;;;;;;5029387;28;20967;-49
2022/12/15 05:41:46;;;;;;;55.93;20.67;;;-5.80;99.90;;;;;;5028053;28;20497;-48
2022/12/15 05:44:12;;;;;;;60.23;21.57;;;-5.90;99.90;;;;;;5029312;28;20116;-54
2022/12/15 05:46:38;;;;;;;56.97;21.23;;;-5.90;99.90;;;;;;5028451;28;20523;-53
2022/12/15 05:49:05;;;;;;;61.17;22.07;;;-5.90;99.90;;;;;;5033992;28;20555;-53
2022/12/15 05:51:31;;;;;;;59.77;21.70;;;-5.90;99.90;;;;;;5028985;28;20218;-52
2022/12/15 05:53:57;;;;;;;54.07;19.53;;;-6.00;99.90;;;;;;5028782;28;20424;-49
2022/12/15 05:56:24;;;;;;;52.97;21.80;;;-6.00;99.90;;;;;;5027591;28;20464;-53
2022/12/15 05:58:50;;;;;;;63.37;22.77;;;-6.00;99.90;;;;;;5028318;28;20508;-52
2022/12/15 06:01:17;;;;;;;59.17;21.50;;;-6.00;99.90;;;;;;5028290;28;20440;-50
2022/12/15 06:03:43;;;;;;;58.67;21.93;;;-5.90;99.90;;;;;;5028587;28;20033;-51
2022/12/15 06:06:10;;;;;;;54.83;21.67;;;-5.90;99.90;;;;;;5028675;28;20428;-52
2022/12/15 06:08:38;;;;;;;62.20;21.10;;;-5.90;99.90;;;;;;5026857;28;20873;-50
2022/12/15 06:11:05;;;;;;;57.33;21.43;;;-5.90;99.90;;;;;;5026589;28;20848;-48
2022/12/15 06:13:33;;;;;;;59.70;23.10;;;-5.90;99.90;;;;;;5028610;28;20472;-53
2022/12/15 06:16:06;;;;;;;58.27;21.07;;;-6.00;99.90;;;;;;5028173;28;20912;-49
2022/12/15 06:18:35;;;;;;;53.50;21.57;;;-5.90;99.90;;;;;;5028096;28;20761;-48
2022/12/15 06:21:06;;;;;;;61.90;22.83;;;-6.00;99.90;;;;;;5028278;28;20439;-49
2022/12/15 06:23:33;;;;;;;57.80;21.13;;;-6.10;99.90;;;;;;5028400;28;20977;-47
2022/12/15 06:25:59;;;;;;;65.57;23.17;;;-6.10;99.90;;;;;;5027502;28;20509;-48
2022/12/15 06:28:25;;;;;;;64.40;22.50;;;-6.00;99.90;;;;;;5028186;28;20467;-48
2022/12/15 06:30:59;;;;;;;51.97;19.63;;;-6.00;99.90;;;;;;5028200;28;20982;-50
2022/12/15 06:33:27;;;;;;;68.97;21.77;;;-5.90;99.90;;;;;;5028641;28;20482;-46
2022/12/15 06:35:53;;;;;;;54.97;20.93;;;-5.90;99.90;;;;;;5028286;28;20523;-49
2022/12/15 06:38:18;;;;;;;67.63;23.37;;;-5.90;99.90;;;;;;5028620;28;20535;-48
2022/12/15 06:40:44;;;;;;;70.60;24.07;;;-5.90;99.90;;;;;;5026896;28;20036;-52
2022/12/15 06:43:10;;;;;;;67.17;20.57;;;-5.80;99.90;;;;;;5010736;28;20026;-49
2022/12/15 06:45:36;;;;;;;75.90;25.23;;;-5.80;99.90;;;;;;5028260;28;20541;-49
2022/12/15 06:48:02;;;;;;;67.27;22.90;;;-5.80;99.90;;;;;;5028059;28;20033;-52
2022/12/15 06:50:27;;;;;;;73.57;24.90;;;-5.80;99.90;;;;;;5027776;28;20033;-43
2022/12/15 06:52:53;;;;;;;72.60;24.13;;;-5.70;99.90;;;;;;5027807;28;20064;-42
2022/12/15 06:55:19;;;;;;;75.07;24.93;;;-5.60;99.90;;;;;;5027163;28;20048;-42
2022/12/15 06:57:47;;;;;;;70.93;22.33;;;-5.60;99.90;;;;;;5028195;28;20044;-43
2022/12/15 07:00:14;;;;;;;68.70;23.45;;;-5.60;99.90;;;;;;5027664;28;20025;-50
2022/12/15 07:02:41;;;;;;;81.27;25.17;;;-5.60;99.90;;;;;;5028240;28;20470;-48
2022/12/15 07:05:08;;;;;;;81.57;25.73;;;-5.60;99.90;;;;;;5028019;28;20531;-48
2022/12/15 07:07:33;;;;;;;87.67;26.93;;;-5.50;99.90;;;;;;5027936;28;20432;-50
2022/12/15 07:09:59;;;;;;;86.90;29.73;;;-5.50;99.90;;;;;;5027937;28;20833;-50
2022/12/15 07:12:25;;;;;;;88.17;26.53;;;-5.50;99.90;;;;;;5027143;28;20030;-49
2022/12/15 07:14:50;;;;;;;93.23;28.07;;;-5.40;99.90;;;;;;5028084;28;20076;-53
2022/12/15 07:17:17;;;;;;;93.87;30.87;;;-5.40;99.90;;;;;;5027889;28;20033;-50
2022/12/15 07:19:42;;;;;;;89.13;28.37;;;-5.30;99.90;;;;;;5029793;28;20125;-49
2022/12/15 07:22:08;;;;;;;93.63;27.67;;;-5.30;99.90;;;;;;5044953;28;20530;-48
2022/12/15 07:24:33;;;;;;;91.30;28.60;;;-5.20;99.90;;;;;;5051028;28;20109;-50
2022/12/15 07:26:59;;;;;;;85.73;27.60;;;-5.20;99.90;;;;;;5049996;28;20499;-48
2022/12/15 07:29:25;;;;;;;95.70;27.87;;;-5.10;99.90;;;;;;5050809;28;20032;-48
2022/12/15 07:31:50;;;;;;;86.77;27.90;;;-5.10;99.90;;;;;;5051004;28;20406;-47
2022/12/15 07:34:16;;;;;;;96.33;30.23;;;-5.10;99.90;;;;;;5051159;28;20115;-49
2022/12/15 07:36:42;;;;;;;86.57;27.93;;;-5.00;99.90;;;;;;5050035;28;20109;-50
2022/12/15 07:39:08;;;;;;;88.53;27.73;;;-5.10;99.90;;;;;;5050323;28;20041;-54
2022/12/15 07:41:34;;;;;;;94.57;28.73;;;-5.00;99.90;;;;;;5049361;28;20047;-50
2022/12/15 07:44:01;;;;;;;83.73;26.60;;;-5.00;99.90;;;;;;5050752;28;20443;-49
2022/12/15 07:46:27;;;;;;;86.43;27.80;;;-5.00;99.90;;;;;;5050633;28;20504;-50
2022/12/15 07:48:53;;;;;;;81.47;26.57;;;-5.00;99.90;;;;;;5050567;28;20463;-51
2022/12/15 07:51:19;;;;;;;75.07;25.83;;;-5.00;99.90;;;;;;5050415;28;20544;-48
2022/12/15 07:53:46;;;;;;;84.73;28.53;;;-4.90;99.90;;;;;;5050621;28;20059;-51
2022/12/15 07:56:12;;;;;;;83.73;27.87;;;-5.00;99.90;;;;;;5049935;28;20438;-50
2022/12/15 07:58:37;;;;;;;79.67;27.60;;;-4.90;99.90;;;;;;5049823;28;20454;-49
2022/12/15 08:01:05;;;;;;;80.80;26.57;;;-4.90;99.90;;;;;;5050667;28;20040;-54
2022/12/15 08:03:31;;;;;;;73.37;26.73;;;-5.00;99.90;;;;;;5050471;28;20187;-52
2022/12/15 08:05:57;;;;;;;79.23;27.33;;;-4.90;99.90;;;;;;5050565;28;20538;-49
2022/12/15 08:08:23;;;;;;;77.67;28.33;;;-4.90;99.90;;;;;;5050031;28;20837;-55
2022/12/15 08:10:49;;;;;;;76.67;27.90;;;-4.90;99.90;;;;;;5049162;28;20044;-53
2022/12/15 08:13:15;;;;;;;77.17;27.17;;;-4.80;99.90;;;;;;5050338;28;20082;-54
2022/12/15 08:15:41;;;;;;;77.47;26.43;;;-4.80;99.90;;;;;;5050347;28;20029;-53
2022/12/15 08:18:08;;;;;;;73.03;23.73;;;-4.80;99.90;;;;;;5049821;28;21001;-52
2022/12/15 08:20:34;;;;;;;72.00;26.10;;;-4.70;99.90;;;;;;5050296;28;20481;-54
2022/12/15 08:23:00;;;;;;;67.83;23.90;;;-4.70;99.90;;;;;;5050382;28;20480;-56
2022/12/15 08:25:29;;;;;;;62.13;23.17;;;-4.60;99.90;;;;;;5049063;28;20558;-53
2022/12/15 08:27:55;;;;;;;73.22;26.55;;;-4.50;99.90;;;;;;5049943;28;20113;-56
2022/12/15 08:30:23;;;;;;;71.97;26.40;;;-4.50;99.90;;;;;;5063115;22;20472;-60
2022/12/15 08:32:48;;;;;;;67.57;25.63;;;-4.50;99.90;;;;;;5049686;28;20451;-59
2022/12/15 08:35:14;;;;;;;73.87;27.93;;;-4.50;99.90;;;;;;5049679;28;20946;-59
2022/12/15 08:37:40;;;;;;;75.57;27.37;;;-4.50;99.90;;;;;;5049093;28;20039;-60
2022/12/15 08:40:06;;;;;;;77.20;27.57;;;-4.50;99.90;;;;;;5048901;28;20447;-60
2022/12/15 08:42:36;;;;;;;70.13;27.93;;;-4.50;99.90;;;;;;5048997;28;20508;-59
2022/12/15 08:45:02;;;;;;;;;;;-4.50;99.90;;;;;;5050232;28;20451;-60
2022/12/15 08:47:29;;;;;;;61.13;22.90;;;-4.50;99.90;;;;;;5049378;28;19912;-59
2022/12/15 08:49:55;;;;;;;67.10;22.97;;;-4.40;99.90;;;;;;5049397;28;20960;-59
2022/12/15 08:52:21;;;;;;;65.83;24.00;;;-4.40;99.90;;;;;;5049147;28;20475;-59
2022/12/15 08:54:48;;;;;;;65.83;24.03;;;-4.30;99.90;;;;;;5049171;28;20474;-60
2022/12/15 08:57:13;;;;;;;60.83;23.17;;;-4.30;99.90;;;;;;5048119;28;20814;-59
2022/12/15 08:59:39;;;;;;;69.60;24.37;;;-4.30;99.90;;;;;;5049067;28;20448;-60
2022/12/15 09:02:06;;;;;;;70.60;27.77;;;-4.30;99.90;;;;;;5049060;28;20032;-59
2022/12/15 09:04:31;;;;;;;73.00;26.20;;;-4.30;99.90;;;;;;5049370;28;20097;-59
2022/12/15 09:06:57;;;;;;;69.23;26.27;;;-4.20;99.90;;;;;;5048774;28;20946;-59
2022/12/15 09:09:23;;;;;;;54.90;21.40;;;-4.10;99.90;;;;;;5048813;28;20032;-59
2022/12/15 09:11:49;;;;;;;71.17;24.60;;;-4.00;99.90;;;;;;5047700;28;20463;-60
2022/12/15 09:14:16;;;;;;;63.17;23.57;;;-3.90;99.90;;;;;;5049432;28;20048;-60
2022/12/15 09:16:42;;;;;;;65.33;22.43;;;-3.90;99.90;;;;;;5047872;28;20389;-60
2022/12/15 09:19:08;;;;;;;63.23;24.90;;;-3.70;99.90;;;;;;5048578;28;20432;-60
2022/12/15 09:21:33;;;;;;;61.30;24.10;;;-3.60;99.90;;;;;;5048799;28;20116;-60
2022/12/15 09:24:01;;;;;;;61.17;22.30;;;-3.60;99.90;;;;;;5048708;28;20029;-60
2022/12/15 09:26:28;;;;;;;50.13;19.20;;;-3.40;99.90;;;;;;5046694;28;20179;-60
2022/12/15 09:28:54;;;;;;;59.50;23.50;;;-3.30;99.90;;;;;;5048140;28;21023;-60
2022/12/15 09:31:29;;;;;;;61.97;23.57;;;-3.30;99.90;;;;;;5048046;28;20447;-60
2022/12/15 09:33:57;;;;;;;63.33;23.10;;;-3.40;99.90;;;;;;5048490;28;20769;-59
2022/12/15 09:36:23;;;;;;;73.27;28.40;;;-3.40;99.90;;;;;;5047654;28;20423;-60
2022/12/15 09:38:49;;;;;;;76.53;27.87;;;-3.50;99.90;;;;;;5048296;28;20467;-60
2022/12/15 09:41:23;;;;;;;80.33;27.67;;;-3.60;99.90;;;;;;5045648;28;20427;-59
2022/12/15 09:44:15;;;;;;;72.07;26.93;;;-3.70;99.90;;;;;;5048552;28;20459;-60
2022/12/15 09:46:47;;;;;;;78.83;29.53;;;-3.70;99.90;;;;;;5048118;28;20431;-59
2022/12/15 09:49:22;;;;;;;80.33;28.90;;;-3.80;99.90;;;;;;5048392;28;20497;-59
2022/12/15 09:51:57;;;;;;;79.57;28.50;;;-3.80;99.90;;;;;;5047987;28;20451;-59
2022/12/15 09:54:29;;;;;;;81.17;29.83;;;-3.70;99.90;;;;;;5048886;28;20420;-59
2022/12/15 09:56:58;;;;;;;78.83;31.17;;;-3.70;99.90;;;;;;5047074;28;20479;-58
2022/12/15 09:59:30;;;;;;;69.38;26.73;;;-3.70;99.90;;;;;;5048418;28;20443;-59
2022/12/15 10:02:16;;;;;;;86.50;31.57;;;-3.60;99.90;;;;;;5048295;28;20029;-59
2022/12/15 10:04:47;;;;;;;83.33;30.23;;;-3.60;99.90;;;;;;5048597;28;20481;-59
2022/12/15 10:07:19;;;;;;;81.87;31.27;;;-3.50;99.90;;;;;;5047660;28;20440;-59
2022/12/15 10:09:44;;;;;;;81.83;32.83;;;-3.40;99.90;;;;;;5047935;28;20574;-59
2022/12/15 10:12:23;;;;;;;83.57;33.90;;;-3.40;99.90;;;;;;5046885;28;20561;-59
2022/12/15 10:14:52;;;;;;;91.85;35.67;;;-3.40;99.90;;;;;;5047981;28;20053;-59
2022/12/15 10:18:26;;;;;;;83.57;32.35;;;-3.30;99.90;;;;;;5047669;28;20036;-59
2022/12/15 10:20:53;;;;;;;88.13;33.00;;;-3.20;99.90;;;;;;4935262;28;20039;-57
2022/12/15 10:23:19;;;;;;;92.43;32.73;;;-3.20;99.90;;;;;;5047905;28;20493;-59
2022/12/15 10:26:13;;;;;;;83.03;32.70;;;-3.20;99.90;;;;;;5046870;28;20447;-60
2022/12/15 10:28:38;;;;;;;79.23;31.10;;;-3.00;99.90;;;;;;5046436;28;20471;-60
2022/12/15 10:31:12;;;;;;;82.60;32.73;;;-2.80;99.90;;;;;;5047560;28;21090;-60
2022/12/15 10:33:41;;;;;;;77.67;30.50;;;-2.80;99.90;;;;;;5047750;28;20037;-60
2022/12/15 10:36:10;;;;;;;76.88;31.67;;;-2.70;99.90;;;;;;5047898;28;20612;-59
2022/12/15 10:38:39;;;;;;;58.45;25.10;;;-2.60;99.90;;;;;;5046974;28;20110;-60
2022/12/15 10:41:14;;;;;;;74.32;29.98;;;-2.50;99.90;;;;;;5046344;28;20041;-60
2022/12/15 10:43:42;;;;;;;77.70;32.23;;;-2.50;99.90;;;;;;5047992;28;20461;-60
2022/12/15 10:46:14;;;;;;;85.57;31.50;;;-2.50;99.90;;;;;;5047371;28;20450;-60
2022/12/15 10:48:45;;;;;;;74.60;29.80;;;-2.60;99.90;;;;;;5047093;28;20504;-60
2022/12/15 10:51:16;;;;;;;72.70;31.50;;;-2.50;99.90;;;;;;5047269;28;20452;-59
2022/12/15 10:53:47;;;;;;;83.27;32.47;;;-2.30;99.90;;;;;;5047612;28;20443;-57
2022/12/15 10:56:21;;;;;;;76.77;32.00;;;-2.20;99.90;;;;;;5049985;28;20986;-60
2022/12/15 10:58:53;;;;;;;78.43;32.10;;;-2.20;99.90;;;;;;5051467;28;20435;-60
2022/12/15 11:01:23;;;;;;;74.73;29.97;;;-1.90;99.90;;;;;;5051327;28;20782;-60
2022/12/15 11:03:52;;;;;;;72.90;31.40;;;-1.80;99.90;;;;;;5051926;28;20157;-59
2022/12/15 11:06:20;;;;;;;74.78;32.20;;;-1.70;99.90;;;;;;5050080;28;20033;-60
2022/12/15 11:08:48;;;;;;;84.43;33.07;;;-1.70;99.90;;;;;;5051215;28;20493;-60
2022/12/15 11:14:18;;;;;;;74.80;31.27;;;-1.70;99.90;;;;;;5051832;28;20044;-60
2022/12/15 11:16:51;;;;;;;58.73;25.00;;;-1.70;99.90;;;;;;5051037;28;20433;-60
2022/12/15 11:19:32;;;;;;;71.33;29.87;;;-1.80;99.90;;;;;;5051096;28;20397;-59
2022/12/15 11:22:17;;;;;;;74.03;31.83;;;-1.80;99.90;;;;;;5051460;28;20385;-59
2022/12/15 11:25:00;;;;;;;77.93;31.00;;;-1.90;99.90;;;;;;5051242;28;20032;-59
2022/12/15 11:27:37;;;;;;;78.30;32.57;;;-1.90;99.90;;;;;;5049796;28;20065;-57
2022/12/15 11:30:16;;;;;;;78.70;32.60;;;-2.00;99.90;;;;;;5050367;28;20465;-56
2022/12/15 11:32:46;;;;;;;77.40;32.40;;;-2.00;99.90;;;;;;5051721;28;20482;-55
2022/12/15 11:35:39;;;;;;;72.33;30.47;;;-2.10;99.90;;;;;;5051337;28;20438;-57
2022/12/15 11:38:25;;;;;;;75.63;30.00;;;-2.00;99.90;;;;;;5051637;28;20838;-56
2022/12/15 11:40:53;;;;;;;75.30;30.03;;;-2.00;99.90;;;;;;5034381;28;20461;-55
2022/12/15 11:44:02;;;;;;;85.57;32.47;;;-2.10;99.90;;;;;;5051909;28;20444;-54
2022/12/15 11:46:56;;;;;;;76.18;32.63;;;-2.10;99.90;;;;;;5051798;28;20770;-58
2022/12/15 11:49:51;;;;;;;76.47;31.77;;;-2.00;99.90;;;;;;5050081;28;20037;-59
2022/12/15 11:52:39;;;;;;;77.07;33.37;;;-1.80;99.90;;;;;;5051908;28;20516;-60
2022/12/15 11:55:33;;;;;;;80.67;33.67;;;-1.50;99.90;;;;;;5052641;28;20116;-60
2022/12/15 11:58:20;;;;;;;75.63;31.63;;;-1.20;99.90;;;;;;5052219;28;20473;-59
2022/12/15 12:00:56;;;;;;;76.03;32.70;;;-1.10;99.90;;;;;;5052146;28;20029;-59
2022/12/15 12:03:37;;;;;;;73.67;31.80;;;-1.20;99.90;;;;;;5052728;28;20154;-59
2022/12/15 12:06:18;;;;;;;73.43;33.37;;;-1.10;99.90;;;;;;5052061;28;20425;-59
2022/12/15 12:08:55;;;;;;;73.97;33.13;;;-1.10;99.90;;;;;;5052139;28;20124;-59
2022/12/15 12:11:33;;;;;;;76.93;31.63;;;-1.10;99.90;;;;;;5052146;28;20441;-59
2022/12/15 12:14:17;;;;;;;77.83;34.20;;;-1.10;99.90;;;;;;5052212;28;20025;-59
2022/12/15 12:16:52;;;;;;;74.37;33.47;;;-1.30;99.90;;;;;;5052006;28;20501;-59
2022/12/15 12:19:32;;;;;;;81.60;35.03;;;-1.40;99.90;;;;;;5052143;28;20048;-59
2022/12/15 12:22:15;;;;;;;76.05;32.55;;;-1.40;99.90;;;;;;5052421;28;20025;-59
2022/12/15 12:24:46;;;;;;;72.17;32.50;;;-1.10;99.90;;;;;;5052353;28;20379;-59
2022/12/15 12:27:42;;;;;;;75.03;32.97;;;-0.80;99.90;;;;;;5051872;28;20493;-60
2022/12/15 12:30:15;;;;;;;76.67;34.13;;;-0.70;99.90;;;;;;5051756;28;20083;-59
2022/12/15 12:33:02;;;;;;;70.00;30.43;;;-0.60;99.90;;;;;;5051657;28;20028;-59
2022/12/15 12:35:34;;;;;;;70.70;31.23;;;-0.50;99.90;;;;;;5052207;28;20024;-59
2022/12/15 12:38:02;;;;;;;73.10;32.27;;;-0.60;99.90;;;;;;5051796;28;20111;-60
2022/12/15 12:40:48;;;;;;;75.33;31.77;;;-0.70;99.90;;;;;;5051566;28;20025;-59
2022/12/15 12:43:32;;;;;;;70.40;31.60;;;-0.40;99.90;;;;;;5052160;28;20078;-59
2022/12/15 12:46:03;;;;;;;72.80;32.53;;;0.30;99.90;;;;;;5051703;28;20024;-59
2022/12/15 12:48:40;;;;;;;73.37;32.03;;;0.40;99.90;;;;;;5051112;28;20080;-59
2022/12/15 12:51:17;;;;;;;66.97;31.40;;;0.80;99.90;;;;;;5051478;28;20025;-59
2022/12/15 12:53:43;;;;;;;69.43;33.67;;;1.10;99.90;;;;;;5051732;28;20104;-59
2022/12/15 12:56:39;;;;;;;68.07;33.33;;;1.00;99.90;;;;;;5051571;28;20529;-59
2022/12/15 12:59:26;;;;;;;69.53;32.27;;;0.80;99.90;;;;;;5051115;28;20032;-59
2022/12/15 13:01:54;;;;;;;67.30;29.73;;;0.30;99.90;;;;;;5051362;28;20043;-59
2022/12/15 13:04:29;;;;;;;73.23;34.30;;;0.00;99.90;;;;;;5051339;28;20033;-59
2022/12/15 13:06:58;;;;;;;74.30;33.70;;;-0.40;99.90;;;;;;5051549;28;20039;-59
2022/12/15 13:09:55;;;;;;;81.30;36.97;;;-0.80;99.90;;;;;;5050953;28;20037;-59
2022/12/15 13:12:48;;;;;;;87.20;38.37;;;-1.20;99.90;;;;;;5050939;28;20033;-59
2022/12/15 13:15:30;;;;;;;81.80;34.33;;;-1.50;99.90;;;;;;5049933;28;20033;-59
2022/12/15 13:18:53;;;;;;;82.03;32.17;;;-1.70;99.90;;;;;;5050088;28;20535;-59
2022/12/15 13:21:50;;;;;;;78.70;33.00;;;-1.80;99.90;;;;;;5008935;28;20101;-59
2022/12/15 13:24:40;;;;;;;75.57;32.70;;;-1.40;99.90;;;;;;5008496;28;20505;-59
2022/12/15 13:27:08;;;;;;;85.00;36.42;;;-1.00;99.90;;;;;;5049681;28;20124;-59
2022/12/15 13:29:55;;;;;;;80.73;32.50;;;-0.80;99.90;;;;;;5050560;28;20393;-59
2022/12/15 13:32:35;;;;;;;75.43;33.73;;;-0.40;99.90;;;;;;5050414;28;20308;-59
2022/12/15 13:35:28;;;;;;;77.33;33.33;;;-0.30;99.90;;;;;;5050788;28;20025;-59
2022/12/15 13:38:01;;;;;;;76.50;33.67;;;-0.40;99.90;;;;;;5044967;28;20044;-59
2022/12/15 13:40:33;;;;;;;80.43;35.27;;;-0.70;99.90;;;;;;5050523;28;20033;-59
2022/12/15 13:43:05;;;;;;;81.83;34.73;;;-0.80;99.90;;;;;;5051201;28;20489;-58
2022/12/15 13:45:39;;;;;;;79.97;35.50;;;-0.90;99.90;;;;;;5050698;28;20033;-60
2022/12/15 13:48:28;;;;;;;81.97;35.03;;;-0.90;99.90;;;;;;5050579;28;20047;-59
2022/12/15 13:51:18;;;;;;;80.20;34.47;;;-0.80;99.90;;;;;;5050467;28;20052;-59
2022/12/15 13:54:09;;;;;;;79.43;33.80;;;-0.90;99.90;;;;;;5050860;28;20040;-60
2022/12/15 13:56:47;;;;;;;74.60;33.73;;;-0.90;99.90;;;;;;5050320;28;20041;-59
2022/12/15 13:59:21;;;;;;;82.85;34.13;;;-0.90;99.90;;;;;;5050373;28;20413;-59
2022/12/15 14:01:49;;;;;;;81.17;34.57;;;-0.90;99.90;;;;;;5050489;28;20432;-60
2022/12/15 14:04:15;;;;;;;78.87;34.67;;;-0.90;99.90;;;;;;5050456;28;20029;-60
2022/12/15 14:07:01;;;;;;;83.60;35.67;;;-1.00;99.90;;;;;;5050434;28;20027;-61
2022/12/15 14:09:34;;;;;;;79.53;35.17;;;-1.10;99.90;;;;;;5049995;28;20129;-60
2022/12/15 14:12:03;;;;;;;79.93;34.00;;;-1.10;99.90;;;;;;5050393;28;20029;-60
2022/12/15 14:14:33;;;;;;;84.45;35.25;;;-1.20;99.90;;;;;;5050443;28;20037;-60
2022/12/15 14:17:01;;;;;;;72.27;33.87;;;-1.30;99.90;;;;;;5050409;28;20429;-60
2022/12/15 14:19:37;;;;;;;87.07;35.27;;;-1.40;99.90;;;;;;5050119;28;20406;-60
2022/12/15 14:22:02;;;;;;;80.50;34.63;;;-1.40;99.90;;;;;;5050522;28;20253;-60
2022/12/15 14:24:31;;;;;;;85.33;36.27;;;-1.50;99.90;;;;;;5050456;28;20029;-60
2022/12/15 14:26:57;;;;;;;84.25;35.47;;;-1.60;99.90;;;;;;5050101;28;20091;-60
2022/12/15 14:29:24;;;;;;;85.27;36.17;;;-1.70;99.90;;;;;;5060144;22;20033;-57
2022/12/15 14:31:55;;;;;;;87.73;36.70;;;-1.70;99.90;;;;;;5034249;28;20029;-57
2022/12/15 14:34:40;;;;;;;92.80;36.77;;;-1.90;99.90;;;;;;5034889;28;20247;-57
2022/12/15 14:37:18;;;;;;;92.50;37.40;;;-2.10;99.90;;;;;;5034013;28;20028;-57
2022/12/15 14:39:47;;;;;;;91.93;38.17;;;-2.10;99.90;;;;;;5034191;28;20440;-57
2022/12/15 14:42:23;;;;;;;89.63;36.95;;;-2.20;99.90;;;;;;5034300;28;20037;-57
2022/12/15 14:44:51;;;;;;;90.13;36.43;;;-2.20;99.90;;;;;;5034092;28;20037;-57
2022/12/15 14:47:25;;;;;;;90.27;36.90;;;-2.10;99.90;;;;;;5033852;28;20049;-57
2022/12/15 14:49:53;;;;;;;86.07;36.40;;;-2.20;99.90;;;;;;5033845;28;20029;-57
2022/12/15 14:52:21;;;;;;;89.10;36.37;;;-2.20;99.90;;;;;;5033969;28;21104;-57
2022/12/15 14:54:53;;;;;;;87.50;35.17;;;-2.20;99.90;;;;;;5034134;28;20030;-56
2022/12/15 14:57:26;;;;;;;82.37;35.83;;;-2.20;99.90;;;;;;5032432;28;20036;-57
2022/12/15 14:59:52;;;;;;;85.97;35.13;;;-2.20;99.90;;;;;;5033552;28;20394;-57
2022/12/15 15:02:25;;;;;;;82.70;35.93;;;-2.30;99.90;;;;;;5033847;28;20482;-57
2022/12/15 15:05:03;;;;;;;91.17;35.50;;;-2.40;99.90;;;;;;5032599;28;20482;-58
2022/12/15 15:07:34;;;;;;;90.27;36.27;;;-2.50;99.90;;;;;;5033723;28;20539;-57
2022/12/15 15:10:20;;;;;;;93.57;36.10;;;-2.50;99.90;;;;;;5033497;28;20485;-57
2022/12/15 15:12:46;;;;;;;89.23;34.87;;;-2.60;99.90;;;;;;5034041;28;20464;-57